Time;durP1;ratioP1;P1;durP2;ratioP2;P2;SDS_P1;SDS_P2;PMS_P1;PMS_P2;Temp;Humidity;BMP_temperature;BMP_pressure;BME280_temperature;BME280_humidity;BME280_pressure;Samples;Min_cycle;Max_cycle;Signal;HPM_P1;HPM_P2
2022/12/24 00:00:58;;;;;;;6.78;1.20;;;;;;;;;;5070676;28;20541;-78
2022/12/24 00:03:25;;;;;;;6.47;1.45;;;;;;;;;;5074036;28;20062;-78
2022/12/24 00:05:51;;;;;;;3.58;0.75;;;;;;;;;;5075953;28;20059;-80
2022/12/24 00:08:18;;;;;;;7.43;1.23;;;;;;;;;;5075989;28;20051;-80
2022/12/24 00:10:48;;;;;;;7.07;1.00;;;;;;;;;;5073960;28;20094;-78
2022/12/24 00:13:14;;;;;;;9.38;1.30;;;;;;;;;;5072439;28;20492;-79
2022/12/24 00:15:41;;;;;;;7.40;1.13;;;;;;;;;;5085132;28;20186;-79
2022/12/24 00:18:07;;;;;;;9.75;1.20;;;;;;;;;;5077781;28;20078;-79
2022/12/24 00:20:33;;;;;;;3.80;0.95;;;;;;;;;;5095594;28;20508;-79
2022/12/24 00:23:00;;;;;;;3.80;0.95;;;;;;;;;;5094571;28;20044;-79
2022/12/24 00:25:26;;;;;;;7.18;1.05;;;;;;;;;;5094720;28;20044;-79
2022/12/24 00:27:53;;;;;;;4.63;0.90;;;;;;;;;;5095839;28;20044;-79
2022/12/24 00:30:19;;;;;;;6.35;1.10;;;;;;;;;;5095217;28;20048;-78
2022/12/24 00:32:46;;;;;;;8.40;1.30;;;;;;;;;;5093880;28;20446;-78
2022/12/24 00:35:12;;;;;;;5.30;1.20;;;;;;;;;;5094627;28;20052;-78
2022/12/24 00:37:38;;;;;;;10.00;1.17;;;;;;;;;;5094957;28;20143;-79
2022/12/24 00:40:05;;;;;;;6.50;1.08;;;;;;;;;;5094570;28;20052;-77
2022/12/24 00:42:31;;;;;;;7.18;1.58;;;;;;;;;;5093776;28;20063;-79
2022/12/24 00:44:58;;;;;;;6.93;1.10;;;;;;;;;;5095046;28;20044;-80
2022/12/24 00:47:24;;;;;;;5.70;0.95;;;;;;;;;;5094663;28;20052;-79
2022/12/24 00:49:51;;;;;;;4.57;0.95;;;;;;;;;;5095254;28;20044;-79
2022/12/24 00:52:17;;;;;;;6.90;1.30;;;;;;;;;;5095273;28;20127;-79
2022/12/24 00:54:43;;;;;;;5.60;1.17;;;;;;;;;;5076251;28;20055;-79
2022/12/24 00:57:10;;;;;;;5.20;1.20;;;;;;;;;;5093359;28;20206;-79
2022/12/24 00:59:36;;;;;;;3.00;0.85;;;;;;;;;;5093108;28;20052;-79
2022/12/24 01:02:02;;;;;;;8.98;1.35;;;;;;;;;;5075340;28;20074;-80
2022/12/24 01:07:14;;;;;;;5.90;0.80;;;;;;;;;;5073812;28;20070;-80
2022/12/24 01:09:41;;;;;;;5.13;1.10;;;;;;;;;;5072804;28;20144;-79
2022/12/24 01:12:07;;;;;;;6.55;1.27;;;;;;;;;;5072653;28;20044;-78
2022/12/24 01:14:33;;;;;;;5.78;0.93;;;;;;;;;;5054931;28;20450;-80
2022/12/24 01:17:00;;;;;;;5.13;1.23;;;;;;;;;;5093750;28;20044;-80
2022/12/24 01:19:26;;;;;;;5.40;1.02;;;;;;;;;;5094252;28;20052;-80
2022/12/24 01:21:52;;;;;;;6.13;0.88;;;;;;;;;;5094347;28;20064;-80
2022/12/24 01:24:19;;;;;;;5.00;0.88;;;;;;;;;;5093910;28;20058;-79
2022/12/24 01:26:45;;;;;;;3.67;0.90;;;;;;;;;;5093973;28;20058;-80
2022/12/24 01:29:12;;;;;;;4.82;1.00;;;;;;;;;;5093663;28;20050;-80
2022/12/24 01:31:38;;;;;;;5.00;1.15;;;;;;;;;;5093215;28;20657;-79
2022/12/24 01:34:05;;;;;;;7.53;1.00;;;;;;;;;;5073314;28;20078;-80
2022/12/24 01:36:31;;;;;;;7.88;1.17;;;;;;;;;;5072674;28;20135;-80
2022/12/24 01:38:58;;;;;;;7.10;1.08;;;;;;;;;;5074204;28;20049;-78
2022/12/24 01:44:17;;;;;;;6.78;1.10;;;;;;;;;;5072208;28;20059;-79
2022/12/24 01:46:43;;;;;;;4.72;1.00;;;;;;;;;;5072262;28;20053;-79
2022/12/24 01:49:12;;;;;;;5.07;0.90;;;;;;;;;;5073997;28;20064;-79
2022/12/24 01:51:41;;;;;;;6.63;1.15;;;;;;;;;;5055895;28;20048;-79
2022/12/24 01:54:13;;;;;;;7.50;1.05;;;;;;;;;;5073300;28;20228;-80
2022/12/24 01:56:44;;;;;;;9.30;1.58;;;;;;;;;;5073405;28;20049;-80
2022/12/24 01:59:11;;;;;;;7.40;0.88;;;;;;;;;;5073967;28;20094;-80
2022/12/24 02:01:38;;;;;;;4.30;0.82;;;;;;;;;;5071852;28;20611;-79
2022/12/24 02:04:14;;;;;;;7.55;0.93;;;;;;;;;;5070998;28;20049;-79
2022/12/24 02:06:41;;;;;;;6.20;1.00;;;;;;;;;;5073977;28;20060;-78
2022/12/24 02:09:07;;;;;;;9.25;1.67;;;;;;;;;;5072166;28;20046;-80
2022/12/24 02:11:36;;;;;;;4.47;1.00;;;;;;;;;;5071818;28;20056;-79
2022/12/24 02:14:02;;;;;;;8.93;1.10;;;;;;;;;;5070722;28;20420;-79
2022/12/24 02:16:29;;;;;;;6.72;1.25;;;;;;;;;;5090269;28;20056;-81
2022/12/24 02:18:59;;;;;;;6.40;1.25;;;;;;;;;;5094894;28;20055;-81
2022/12/24 02:21:44;;;;;;;8.18;1.00;;;;;;;;;;5093996;28;20075;-79
2022/12/24 02:24:20;;;;;;;5.80;1.00;;;;;;;;;;5091463;28;20129;-79
2022/12/24 02:27:05;;;;;;;5.32;1.02;;;;;;;;;;5092329;28;20055;-78
2022/12/24 02:29:51;;;;;;;8.60;1.00;;;;;;;;;;5094033;28;20054;-78
2022/12/24 02:32:23;;;;;;;6.53;0.97;;;;;;;;;;5099582;28;20304;-77
2022/12/24 02:34:49;;;;;;;4.85;0.80;;;;;;;;;;5096448;28;20157;-79
2022/12/24 02:37:25;;;;;;;10.63;1.30;;;;;;;;;;5096010;28;20139;-79
2022/12/24 02:39:51;;;;;;;;;;;;;;;;;;5095071;28;20044;-79
2022/12/24 02:42:21;;;;;;;7.50;0.90;;;;;;;;;;5092708;28;19931;-77
2022/12/24 02:44:50;;;;;;;3.53;0.75;;;;;;;;;;5092804;28;20708;-79
2022/12/24 02:47:19;;;;;;;3.67;0.90;;;;;;;;;;5092884;28;20063;-79
2022/12/24 02:49:46;;;;;;;6.80;0.85;;;;;;;;;;5093648;28;20139;-79
2022/12/24 02:52:33;;;;;;;5.07;1.10;;;;;;;;;;5093863;28;20046;-79
2022/12/24 02:55:01;;;;;;;3.42;0.80;;;;;;;;;;5090577;28;20063;-80
2022/12/24 02:57:34;;;;;;;5.38;0.80;;;;;;;;;;5073726;28;20055;-80
2022/12/24 03:00:11;;;;;;;5.80;1.02;;;;;;;;;;5092876;28;20048;-79
2022/12/24 03:02:40;;;;;;;3.03;0.80;;;;;;;;;;5090702;28;20060;-79
2022/12/24 03:05:12;;;;;;;6.97;1.00;;;;;;;;;;5090681;28;20055;-79
2022/12/24 03:07:41;;;;;;;7.75;1.10;;;;;;;;;;5067612;28;20036;-79
2022/12/24 03:10:28;;;;;;;6.30;0.85;;;;;;;;;;5069730;28;20051;-79
2022/12/24 03:12:56;;;;;;;5.63;1.20;;;;;;;;;;5069429;28;20435;-79
2022/12/24 03:15:24;;;;;;;6.97;0.98;;;;;;;;;;5053104;28;20059;-79
2022/12/24 03:17:53;;;;;;;7.15;0.95;;;;;;;;;;5072594;28;20393;-80
2022/12/24 03:20:25;;;;;;;5.28;0.80;;;;;;;;;;5072456;28;20052;-79
2022/12/24 03:22:52;;;;;;;4.50;1.00;;;;;;;;;;5071831;28;20045;-80
2022/12/24 03:25:18;;;;;;;5.85;1.00;;;;;;;;;;5072094;28;20041;-79
2022/12/24 03:27:45;;;;;;;6.07;0.93;;;;;;;;;;5068633;28;20127;-78
2022/12/24 03:30:12;;;;;;;7.15;0.90;;;;;;;;;;5069989;28;20041;-79
2022/12/24 03:32:39;;;;;;;6.45;1.33;;;;;;;;;;5066918;28;20048;-77
2022/12/24 03:35:06;;;;;;;7.43;1.05;;;;;;;;;;5071899;28;20052;-79
2022/12/24 03:37:32;;;;;;;5.57;1.10;;;;;;;;;;5072608;28;20058;-79
2022/12/24 03:39:59;;;;;;;5.75;1.17;;;;;;;;;;5073057;28;20052;-78
2022/12/24 03:42:25;;;;;;;8.65;1.25;;;;;;;;;;5072252;28;20049;-80
2022/12/24 03:44:51;;;;;;;5.82;0.93;;;;;;;;;;5070793;28;20048;-78
2022/12/24 03:47:18;;;;;;;5.28;1.20;;;;;;;;;;5069992;28;20053;-79
2022/12/24 03:49:44;;;;;;;6.35;1.20;;;;;;;;;;5071403;28;20051;-79
2022/12/24 03:52:11;;;;;;;7.53;1.77;;;;;;;;;;5072690;28;20079;-80
2022/12/24 03:54:38;;;;;;;7.95;1.20;;;;;;;;;;5070719;28;20048;-79
2022/12/24 03:57:04;;;;;;;8.73;1.27;;;;;;;;;;5071536;28;20072;-79
2022/12/24 03:59:30;;;;;;;8.07;1.02;;;;;;;;;;5071159;28;20147;-78
2022/12/24 04:01:57;;;;;;;7.57;1.52;;;;;;;;;;5070102;28;20056;-79
2022/12/24 04:04:24;;;;;;;11.45;1.10;;;;;;;;;;5072641;28;20122;-80
2022/12/24 04:06:50;;;;;;;11.02;1.50;;;;;;;;;;5075151;28;20055;-79
2022/12/24 04:09:16;;;;;;;5.15;0.80;;;;;;;;;;5073575;28;20528;-80
2022/12/24 04:11:43;;;;;;;8.20;1.13;;;;;;;;;;5073927;28;20147;-79
2022/12/24 04:14:09;;;;;;;9.07;1.30;;;;;;;;;;5072439;28;20044;-79
2022/12/24 04:16:35;;;;;;;9.02;1.30;;;;;;;;;;5090527;28;20060;-79
2022/12/24 04:19:02;;;;;;;13.55;1.88;;;;;;;;;;5094615;28;20052;-80
2022/12/24 04:21:29;;;;;;;6.15;1.25;;;;;;;;;;5093851;28;20491;-79
2022/12/24 04:23:55;;;;;;;8.25;1.27;;;;;;;;;;5093392;28;20107;-78
2022/12/24 04:26:21;;;;;;;7.07;1.55;;;;;;;;;;5093123;28;20067;-80
2022/12/24 04:28:48;;;;;;;7.72;1.40;;;;;;;;;;5093530;28;20055;-79
2022/12/24 04:31:15;;;;;;;11.98;1.13;;;;;;;;;;5075086;28;20423;-80
2022/12/24 04:33:42;;;;;;;6.85;1.42;;;;;;;;;;5074371;28;20048;-80
2022/12/24 04:36:11;;;;;;;9.05;1.50;;;;;;;;;;5094066;28;20140;-79
2022/12/24 04:38:38;;;;;;;9.65;1.40;;;;;;;;;;5074762;28;20056;-79
2022/12/24 04:41:09;;;;;;;9.38;1.70;;;;;;;;;;5091403;28;20112;-79
2022/12/24 04:43:36;;;;;;;12.38;1.38;;;;;;;;;;5091225;28;20052;-79
2022/12/24 04:46:06;;;;;;;10.65;1.55;;;;;;;;;;5091929;28;20055;-79
2022/12/24 04:48:32;;;;;;;10.07;1.70;;;;;;;;;;5094887;28;20492;-79
2022/12/24 04:51:02;;;;;;;9.35;1.70;;;;;;;;;;5097122;28;20055;-79
2022/12/24 04:53:29;;;;;;;8.57;1.27;;;;;;;;;;5077896;28;20466;-79
2022/12/24 04:55:55;;;;;;;11.60;1.55;;;;;;;;;;5094664;28;20209;-79
2022/12/24 04:58:21;;;;;;;10.50;1.42;;;;;;;;;;5096236;28;20116;-80
2022/12/24 05:00:48;;;;;;;8.95;1.30;;;;;;;;;;5095246;28;20055;-79
2022/12/24 05:03:14;;;;;;;12.35;1.50;;;;;;;;;;5095745;28;20076;-79
2022/12/24 05:05:41;;;;;;;13.35;2.03;;;;;;;;;;5095614;28;20123;-79
2022/12/24 05:08:07;;;;;;;11.60;1.35;;;;;;;;;;5086942;28;20041;-80
2022/12/24 05:10:34;;;;;;;7.43;1.23;;;;;;;;;;5075227;28;20044;-80
2022/12/24 05:13:00;;;;;;;10.40;1.17;;;;;;;;;;5074286;28;20421;-79
2022/12/24 05:15:30;;;;;;;8.05;1.10;;;;;;;;;;5074431;28;20133;-79
2022/12/24 05:17:57;;;;;;;7.97;1.30;;;;;;;;;;5079282;28;20048;-80
2022/12/24 05:20:23;;;;;;;12.65;1.70;;;;;;;;;;5076146;28;20083;-80
2022/12/24 05:28:22;;;;;;;12.10;1.67;;;;;;;;;;5077052;28;20048;-79
2022/12/24 05:30:49;;;;;;;10.40;1.48;;;;;;;;;;5073888;28;20063;-79
2022/12/24 05:33:15;;;;;;;8.55;1.40;;;;;;;;;;5074469;28;20501;-80
2022/12/24 05:35:42;;;;;;;9.40;1.40;;;;;;;;;;5076469;28;20052;-81
2022/12/24 05:38:08;;;;;;;11.70;1.45;;;;;;;;;;5058289;28;20052;-79
2022/12/24 05:40:34;;;;;;;8.57;1.52;;;;;;;;;;5074948;28;20425;-79
2022/12/24 05:43:01;;;;;;;6.47;1.20;;;;;;;;;;5074884;28;20063;-80
2022/12/24 05:45:27;;;;;;;11.68;1.25;;;;;;;;;;5077829;28;20055;-79
2022/12/24 05:47:54;;;;;;;12.48;1.17;;;;;;;;;;5076627;28;20049;-79
2022/12/24 05:50:20;;;;;;;10.52;1.80;;;;;;;;;;5078242;28;20051;-79
2022/12/24 05:52:50;;;;;;;7.50;1.30;;;;;;;;;;5058956;28;20131;-78
2022/12/24 05:55:16;;;;;;;8.73;1.55;;;;;;;;;;5076955;28;20067;-80
2022/12/24 05:57:43;;;;;;;13.20;1.50;;;;;;;;;;5075593;28;20128;-78
2022/12/24 06:00:09;;;;;;;9.18;1.35;;;;;;;;;;5074359;28;20058;-80
2022/12/24 06:02:36;;;;;;;10.50;1.20;;;;;;;;;;5072468;28;20059;-79
2022/12/24 06:05:02;;;;;;;11.25;1.55;;;;;;;;;;5075416;28;20049;-80
2022/12/24 06:07:29;;;;;;;12.68;1.50;;;;;;;;;;5075898;28;20048;-78
2022/12/24 06:09:55;;;;;;;8.07;1.33;;;;;;;;;;5075225;28;20456;-78
2022/12/24 06:12:22;;;;;;;9.63;1.55;;;;;;;;;;5073976;28;20394;-78
2022/12/24 06:14:48;;;;;;;11.70;1.42;;;;;;;;;;5073438;28;20060;-78
2022/12/24 06:17:15;;;;;;;10.27;1.55;;;;;;;;;;5055583;28;20045;-79
2022/12/24 06:19:41;;;;;;;14.48;1.50;;;;;;;;;;5073390;28;20049;-78
2022/12/24 06:22:07;;;;;;;8.55;1.30;;;;;;;;;;5072957;28;20049;-79
2022/12/24 06:24:34;;;;;;;10.45;1.67;;;;;;;;;;5070507;28;20051;-78
2022/12/24 06:27:00;;;;;;;6.93;1.33;;;;;;;;;;5053350;28;20649;-77
2022/12/24 06:29:28;;;;;;;8.07;1.27;;;;;;;;;;5053948;28;20045;-79
2022/12/24 06:31:54;;;;;;;11.85;1.50;;;;;;;;;;5072459;28;20048;-78
2022/12/24 06:34:21;;;;;;;11.70;1.45;;;;;;;;;;5072516;28;20414;-78
2022/12/24 06:36:47;;;;;;;12.70;1.92;;;;;;;;;;5072832;28;20044;-78
2022/12/24 06:39:13;;;;;;;8.13;1.35;;;;;;;;;;5073403;28;20048;-78
2022/12/24 06:41:40;;;;;;;12.48;1.33;;;;;;;;;;5071588;28;20063;-76
2022/12/24 06:44:07;;;;;;;12.50;1.23;;;;;;;;;;5053312;28;20044;-79
2022/12/24 06:46:34;;;;;;;7.90;1.40;;;;;;;;;;5072673;28;20451;-79
2022/12/24 06:49:01;;;;;;;11.55;1.52;;;;;;;;;;5073041;28;20523;-78
2022/12/24 06:51:27;;;;;;;10.68;1.33;;;;;;;;;;5073503;28;20554;-79
2022/12/24 06:53:54;;;;;;;7.70;1.35;;;;;;;;;;5072050;28;20134;-78
2022/12/24 06:56:20;;;;;;;11.75;1.30;;;;;;;;;;5072228;28;20059;-79
2022/12/24 06:58:47;;;;;;;10.45;1.42;;;;;;;;;;5075268;28;20115;-79
2022/12/24 07:01:14;;;;;;;12.77;1.52;;;;;;;;;;5074180;28;20093;-77
2022/12/24 07:03:40;;;;;;;14.77;1.70;;;;;;;;;;5071724;28;20135;-78
2022/12/24 07:06:13;;;;;;;12.82;1.42;;;;;;;;;;5073471;28;20048;-79
2022/12/24 07:08:39;;;;;;;8.90;1.48;;;;;;;;;;5066244;28;20048;-79
2022/12/24 07:11:06;;;;;;;9.27;1.25;;;;;;;;;;5074815;28;20068;-78
2022/12/24 07:13:33;;;;;;;14.98;1.73;;;;;;;;;;5073787;28;20727;-78
2022/12/24 07:16:00;;;;;;;12.30;1.70;;;;;;;;;;5070468;28;20052;-77
2022/12/24 07:18:30;;;;;;;15.48;1.80;;;;;;;;;;5069076;28;20052;-79
2022/12/24 07:20:56;;;;;;;17.33;2.15;;;;;;;;;;5070317;28;20060;-77
2022/12/24 07:23:23;;;;;;;15.52;2.03;;;;;;;;;;5068936;28;20049;-77
2022/12/24 07:25:49;;;;;;;12.00;1.95;;;;;;;;;;5059239;28;20047;-79
2022/12/24 07:28:15;;;;;;;10.80;1.67;;;;;;;;;;5066052;28;20049;-80
2022/12/24 07:30:45;;;;;;;11.85;1.70;;;;;;;;;;5071737;28;20472;-79
2022/12/24 07:33:11;;;;;;;10.98;1.90;;;;;;;;;;5067733;28;20210;-79
2022/12/24 07:35:37;;;;;;;11.25;1.55;;;;;;;;;;5067506;28;20265;-79
2022/12/24 07:38:04;;;;;;;16.83;1.70;;;;;;;;;;5068072;28;20052;-79
2022/12/24 07:40:32;;;;;;;13.27;1.75;;;;;;;;;;5054951;28;20059;-79
2022/12/24 07:42:59;;;;;;;14.35;2.05;;;;;;;;;;5074151;28;20057;-80
2022/12/24 07:45:25;;;;;;;13.48;1.50;;;;;;;;;;5071696;28;20048;-80
2022/12/24 07:47:53;;;;;;;17.95;2.45;;;;;;;;;;5072810;28;20048;-80
2022/12/24 07:50:19;;;;;;;13.20;1.70;;;;;;;;;;5073201;28;20052;-80
2022/12/24 07:52:47;;;;;;;18.88;2.50;;;;;;;;;;5071051;28;20545;-78
2022/12/24 07:55:14;;;;;;;10.80;1.80;;;;;;;;;;5069991;28;20056;-78
2022/12/24 07:57:40;;;;;;;13.93;2.10;;;;;;;;;;5070348;28;20052;-80
2022/12/24 08:00:07;;;;;;;15.13;1.70;;;;;;;;;;5064163;28;20424;-78
2022/12/24 08:02:35;;;;;;;12.55;1.90;;;;;;;;;;5091215;28;20047;-79
2022/12/24 08:05:01;;;;;;;11.35;1.80;;;;;;;;;;5065619;28;20095;-79
2022/12/24 08:07:28;;;;;;;14.30;2.08;;;;;;;;;;5074284;28;20059;-80
2022/12/24 08:09:54;;;;;;;10.57;1.92;;;;;;;;;;5073091;28;20128;-78
2022/12/24 08:12:21;;;;;;;20.27;2.20;;;;;;;;;;5067552;28;20056;-78
2022/12/24 08:14:47;;;;;;;16.83;2.00;;;;;;;;;;5068563;28;20051;-80
2022/12/24 08:17:13;;;;;;;8.88;1.40;;;;;;;;;;5070015;28;20052;-78
2022/12/24 08:19:40;;;;;;;12.13;1.52;;;;;;;;;;5071268;28;20068;-79
2022/12/24 08:22:06;;;;;;;11.25;1.55;;;;;;;;;;5071421;28;20056;-78
2022/12/24 08:24:33;;;;;;;13.82;1.80;;;;;;;;;;5072168;28;20155;-79
2022/12/24 08:26:59;;;;;;;10.38;1.52;;;;;;;;;;5073369;28;20059;-79
2022/12/24 08:29:28;;;;;;;10.75;1.63;;;;;;;;;;5072735;28;20048;-78
2022/12/24 08:31:54;;;;;;;8.93;1.40;;;;;;;;;;5073168;28;20499;-79
2022/12/24 08:34:20;;;;;;;14.77;1.75;;;;;;;;;;5076148;28;20048;-80
2022/12/24 08:36:47;;;;;;;9.00;1.48;;;;;;;;;;5075861;28;20059;-81
2022/12/24 08:39:13;;;;;;;12.95;2.42;;;;;;;;;;5071871;28;20048;-79
2022/12/24 08:41:39;;;;;;;11.57;2.10;;;;;;;;;;5076922;28;20067;-77
2022/12/24 08:44:06;;;;;;;12.30;1.65;;;;;;;;;;5072864;28;20056;-80
2022/12/24 08:46:32;;;;;;;15.25;1.92;;;;;;;;;;5057414;28;20419;-80
2022/12/24 08:48:59;;;;;;;11.98;1.88;;;;;;;;;;5073726;28;20135;-79
2022/12/24 08:51:25;;;;;;;12.65;1.98;;;;;;;;;;5073848;28;20048;-79
2022/12/24 08:53:52;;;;;;;16.40;2.35;;;;;;;;;;5071051;28;20481;-79
2022/12/24 08:56:18;;;;;;;14.15;2.00;;;;;;;;;;5071404;28;20076;-80
2022/12/24 08:58:44;;;;;;;14.70;2.55;;;;;;;;;;5074121;28;20041;-80
2022/12/24 09:01:15;;;;;;;9.02;1.55;;;;;;;;;;5072435;28;20060;-80
2022/12/24 09:03:42;;;;;;;13.13;2.53;;;;;;;;;;5053743;28;20049;-79
2022/12/24 09:06:09;;;;;;;13.63;2.00;;;;;;;;;;5053142;28;20048;-77
2022/12/24 09:08:36;;;;;;;14.73;2.03;;;;;;;;;;5071720;28;20051;-76
2022/12/24 09:11:07;;;;;;;12.27;1.88;;;;;;;;;;5074398;28;20050;-81
2022/12/24 09:13:34;;;;;;;8.65;1.77;;;;;;;;;;5055243;28;20139;-80
2022/12/24 09:16:00;;;;;;;10.13;1.45;;;;;;;;;;5074105;28;20052;-79
2022/12/24 09:18:26;;;;;;;14.55;2.42;;;;;;;;;;5074424;28;20053;-80
2022/12/24 09:21:03;;;;;;;7.38;1.80;;;;;;;;;;5073363;28;20064;-78
2022/12/24 09:23:31;;;;;;;15.98;2.38;;;;;;;;;;5073621;28;20049;-78
2022/12/24 09:25:58;;;;;;;14.30;1.75;;;;;;;;;;5072582;28;20057;-78
2022/12/24 09:28:24;;;;;;;14.90;2.08;;;;;;;;;;5073673;28;20051;-78
2022/12/24 09:31:01;;;;;;;13.40;2.05;;;;;;;;;;5070883;28;20055;-78
2022/12/24 09:33:28;;;;;;;14.13;1.95;;;;;;;;;;5072855;28;20052;-79
2022/12/24 09:35:54;;;;;;;14.48;1.85;;;;;;;;;;5054812;28;20048;-78
2022/12/24 09:38:21;;;;;;;13.18;2.40;;;;;;;;;;5074573;28;20044;-78
2022/12/24 09:40:48;;;;;;;5.18;1.13;;;;;;;;;;5070638;28;20630;-78
2022/12/24 09:43:21;;;;;;;13.80;2.22;;;;;;;;;;5070477;28;20044;-78
2022/12/24 09:45:51;;;;;;;11.02;1.65;;;;;;;;;;5071348;28;20107;-78
2022/12/24 09:48:20;;;;;;;11.30;1.38;;;;;;;;;;5072115;28;20087;-79
2022/12/24 09:50:57;;;;;;;15.75;1.70;;;;;;;;;;5072550;28;20048;-79
2022/12/24 09:53:47;;;;;;;11.20;1.30;;;;;;;;;;5072509;28;20572;-79
2022/12/24 09:56:19;;;;;;;12.80;1.58;;;;;;;;;;5057039;28;20063;-79
2022/12/24 09:58:45;;;;;;;13.23;1.30;;;;;;;;;;5073796;28;20044;-78
2022/12/24 10:01:13;;;;;;;9.43;1.27;;;;;;;;;;5072733;28;20045;-77
2022/12/24 10:03:39;;;;;;;9.65;1.83;;;;;;;;;;5071721;28;20064;-78
2022/12/24 10:06:21;;;;;;;8.98;1.48;;;;;;;;;;5052516;28;20050;-78
2022/12/24 10:08:54;;;;;;;9.70;1.38;;;;;;;;;;5071257;28;20558;-78
2022/12/24 10:11:27;;;;;;;10.00;1.08;;;;;;;;;;5069834;28;20040;-78
2022/12/24 10:14:08;;;;;;;9.48;1.35;;;;;;;;;;5069239;28;20044;-78
2022/12/24 10:16:57;;;;;;;8.00;1.27;;;;;;;;;;5087288;28;20051;-78
2022/12/24 10:19:41;;;;;;;11.30;1.65;;;;;;;;;;5073453;28;20044;-79
2022/12/24 10:22:31;;;;;;;7.13;1.48;;;;;;;;;;5094838;28;20054;-79
2022/12/24 10:25:00;;;;;;;8.18;1.65;;;;;;;;;;5080171;28;20159;-79
2022/12/24 10:27:30;;;;;;;9.32;1.48;;;;;;;;;;5073674;28;20392;-79
2022/12/24 10:30:12;;;;;;;12.77;1.55;;;;;;;;;;5074659;28;20063;-79
2022/12/24 10:32:43;;;;;;;9.20;1.63;;;;;;;;;;5072041;28;20044;-79
2022/12/24 10:35:15;;;;;;;14.35;1.98;;;;;;;;;;5073902;28;20059;-79
2022/12/24 10:37:43;;;;;;;10.23;1.85;;;;;;;;;;5073811;28;20053;-79
2022/12/24 10:40:15;;;;;;;8.43;2.15;;;;;;;;;;5072546;28;20449;-79
2022/12/24 10:42:41;;;;;;;9.60;1.60;;;;;;;;;;5071653;28;20493;-79
2022/12/24 10:45:18;;;;;;;12.17;1.67;;;;;;;;;;5073034;28;20171;-79
2022/12/24 10:47:46;;;;;;;13.25;1.77;;;;;;;;;;5073599;28;20040;-79
2022/12/24 10:50:32;;;;;;;7.55;1.77;;;;;;;;;;5073530;28;20464;-79
2022/12/24 10:53:17;;;;;;;10.68;1.52;;;;;;;;;;5075355;28;20067;-79
2022/12/24 10:55:46;;;;;;;10.77;1.52;;;;;;;;;;5069820;28;20112;-79
2022/12/24 10:58:16;;;;;;;13.50;1.80;;;;;;;;;;5081125;28;20052;-78
2022/12/24 11:00:48;;;;;;;8.63;1.65;;;;;;;;;;5071158;28;20048;-78
2022/12/24 11:03:17;;;;;;;9.98;1.90;;;;;;;;;;5072684;28;20090;-78
2022/12/24 11:05:45;;;;;;;8.00;1.58;;;;;;;;;;5070218;28;20131;-78
2022/12/24 11:08:11;;;;;;;8.82;1.58;;;;;;;;;;5071905;28;20128;-78
2022/12/24 11:10:42;;;;;;;8.52;1.38;;;;;;;;;;5073124;28;20075;-77
2022/12/24 11:13:21;;;;;;;13.13;1.67;;;;;;;;;;5068280;28;20055;-78
2022/12/24 11:16:23;;;;;;;6.30;1.77;;;;;;;;;;5082892;28;20155;-77
2022/12/24 11:18:54;;;;;;;9.95;1.70;;;;;;;;;;5090933;28;20052;-77
2022/12/24 11:21:20;;;;;;;10.90;1.70;;;;;;;;;;5090104;28;20510;-77
2022/12/24 11:24:06;;;;;;;6.28;1.35;;;;;;;;;;5072422;28;20048;-78
2022/12/24 11:26:32;;;;;;;;;;;;;;;;;;5091726;28;20044;-78
2022/12/24 11:28:58;;;;;;;;;;;;;;;;;;5091725;28;19920;-78
2022/12/24 11:31:25;;;;;;;6.75;1.40;;;;;;;;;;5092808;28;19959;-78
2022/12/24 11:33:52;;;;;;;6.50;1.30;;;;;;;;;;5089962;28;20459;-77
2022/12/24 11:36:20;;;;;;;9.35;1.20;;;;;;;;;;5090696;28;20044;-78
2022/12/24 11:38:54;;;;;;;10.40;1.63;;;;;;;;;;5093020;28;20043;-78
2022/12/24 11:41:21;;;;;;;7.30;1.42;;;;;;;;;;5092491;28;20053;-77
2022/12/24 11:43:49;;;;;;;12.00;1.58;;;;;;;;;;5096184;28;20055;-78
2022/12/24 11:46:36;;;;;;;11.25;1.50;;;;;;;;;;5094427;28;20048;-77
2022/12/24 11:49:12;;;;;;;11.05;1.80;;;;;;;;;;5098740;28;20439;-78
2022/12/24 11:51:38;;;;;;;;;;;;;;;;;;5091506;28;20047;-77
2022/12/24 11:54:13;;;;;;;5.72;1.33;;;;;;;;;;5089263;28;19955;-78
2022/12/24 11:56:43;;;;;;;8.52;1.30;;;;;;;;;;5072547;28;20048;-78
2022/12/24 11:59:15;;;;;;;6.45;1.60;;;;;;;;;;5081595;28;20135;-77
2022/12/24 12:01:47;;;;;;;6.60;1.40;;;;;;;;;;5089226;28;20050;-78
2022/12/24 12:04:13;;;;;;;6.57;1.38;;;;;;;;;;5089270;28;20071;-78
2022/12/24 12:07:00;;;;;;;9.63;1.48;;;;;;;;;;5091669;28;20082;-78
2022/12/24 12:09:36;;;;;;;7.70;1.40;;;;;;;;;;5052584;28;20505;-78
2022/12/24 12:12:13;;;;;;;10.63;1.25;;;;;;;;;;5071574;28;20040;-77
2022/12/24 12:14:43;;;;;;;6.20;1.30;;;;;;;;;;5072542;28;20051;-79
2022/12/24 12:17:13;;;;;;;12.85;1.63;;;;;;;;;;5091584;28;20051;-79
2022/12/24 12:19:44;;;;;;;7.30;1.25;;;;;;;;;;5092288;28;20050;-78
2022/12/24 12:22:20;;;;;;;3.83;1.15;;;;;;;;;;5092845;28;20044;-78
2022/12/24 12:24:49;;;;;;;8.40;1.40;;;;;;;;;;5091959;28;20389;-78
2022/12/24 12:27:19;;;;;;;7.40;1.30;;;;;;;;;;5092506;28;20044;-78
2022/12/24 12:29:51;;;;;;;11.40;1.90;;;;;;;;;;5091050;28;20127;-78
2022/12/24 12:32:24;;;;;;;6.20;1.42;;;;;;;;;;5089795;28;20123;-76
2022/12/24 12:34:57;;;;;;;7.65;1.50;;;;;;;;;;5091835;28;20093;-78
2022/12/24 12:37:27;;;;;;;8.38;1.77;;;;;;;;;;5092768;28;20066;-78
2022/12/24 12:39:54;;;;;;;5.43;1.20;;;;;;;;;;5090935;28;20050;-79
2022/12/24 12:42:31;;;;;;;8.65;1.40;;;;;;;;;;5089128;28;20155;-78
2022/12/24 12:44:57;;;;;;;6.57;1.25;;;;;;;;;;5088802;28;20063;-78
2022/12/24 12:47:42;;;;;;;4.22;1.08;;;;;;;;;;5089118;28;20079;-78
2022/12/24 12:50:08;;;;;;;4.38;1.30;;;;;;;;;;5091663;28;20566;-79
2022/12/24 12:52:34;;;;;;;5.72;0.93;;;;;;;;;;5091154;28;20048;-79
2022/12/24 12:55:15;;;;;;;4.55;1.17;;;;;;;;;;5090086;28;20052;-79
2022/12/24 12:57:50;;;;;;;9.27;0.80;;;;;;;;;;5090845;28;20163;-78
2022/12/24 13:00:17;;;;;;;3.67;0.85;;;;;;;;;;5092154;28;20056;-77
2022/12/24 13:02:58;;;;;;;3.72;0.80;;;;;;;;;;5090201;28;20051;-78
2022/12/24 13:05:28;;;;;;;3.40;0.90;;;;;;;;;;5092032;28;20066;-77
2022/12/24 13:08:13;;;;;;;4.28;0.80;;;;;;;;;;5084865;28;20551;-79
2022/12/24 13:10:47;;;;;;;3.83;1.13;;;;;;;;;;5066620;28;20044;-78
2022/12/24 13:13:28;;;;;;;4.53;0.90;;;;;;;;;;5074416;28;20049;-78
2022/12/24 13:16:07;;;;;;;3.90;0.82;;;;;;;;;;5085872;28;20081;-79
2022/12/24 13:18:42;;;;;;;5.55;1.00;;;;;;;;;;5077148;28;20139;-78
2022/12/24 13:21:17;;;;;;;5.18;1.15;;;;;;;;;;5094602;28;20056;-79
2022/12/24 13:23:43;;;;;;;5.72;1.13;;;;;;;;;;5094668;28;20126;-78
2022/12/24 13:26:11;;;;;;;6.53;1.00;;;;;;;;;;5094494;28;20058;-79
2022/12/24 13:28:37;;;;;;;5.05;1.02;;;;;;;;;;5095279;28;20048;-78
2022/12/24 13:31:16;;;;;;;4.53;1.13;;;;;;;;;;5094463;28;20412;-79
2022/12/24 13:33:42;;;;;;;4.13;1.00;;;;;;;;;;5094118;28;20080;-79
2022/12/24 13:36:10;;;;;;;4.78;1.10;;;;;;;;;;5077923;28;20048;-78
2022/12/24 13:38:41;;;;;;;6.57;1.30;;;;;;;;;;5095013;28;20048;-78
2022/12/24 13:41:26;;;;;;;9.45;1.33;;;;;;;;;;5093196;28;20101;-79
2022/12/24 13:44:05;;;;;;;10.27;1.52;;;;;;;;;;5092162;28;20107;-79
2022/12/24 13:46:50;;;;;;;4.90;1.10;;;;;;;;;;5092528;28;20173;-79
2022/12/24 13:49:16;;;;;;;4.57;1.00;;;;;;;;;;5093953;28;20115;-78
2022/12/24 13:51:42;;;;;;;5.70;1.10;;;;;;;;;;5093531;28;20048;-78
2022/12/24 13:54:11;;;;;;;5.88;1.48;;;;;;;;;;5092325;28;20052;-78
2022/12/24 13:56:37;;;;;;;4.80;1.67;;;;;;;;;;5093516;28;20062;-78
2022/12/24 13:59:10;;;;;;;11.23;1.42;;;;;;;;;;5092967;28;20457;-78
2022/12/24 14:01:38;;;;;;;6.40;1.40;;;;;;;;;;5093653;28;20074;-78
2022/12/24 14:04:07;;;;;;;8.10;1.73;;;;;;;;;;5092554;28;20086;-78
2022/12/24 14:06:38;;;;;;;6.72;1.40;;;;;;;;;;5094061;28;20055;-79
2022/12/24 14:09:12;;;;;;;5.13;1.42;;;;;;;;;;5075853;28;20136;-78
2022/12/24 14:11:57;;;;;;;4.80;1.30;;;;;;;;;;5054027;28;20044;-77
2022/12/24 14:14:28;;;;;;;7.13;1.30;;;;;;;;;;5071977;28;20104;-80
2022/12/24 14:16:57;;;;;;;7.45;1.48;;;;;;;;;;5033431;28;20049;-79
2022/12/24 14:19:46;;;;;;;10.77;1.75;;;;;;;;;;5055136;28;20053;-79
2022/12/24 14:22:17;;;;;;;7.40;1.40;;;;;;;;;;5027852;28;20055;-79
2022/12/24 14:24:48;;;;;;;5.85;1.13;;;;;;;;;;5053381;28;20060;-78
2022/12/24 14:27:20;;;;;;;5.10;1.17;;;;;;;;;;5054700;28;20056;-79
2022/12/24 14:29:51;;;;;;;6.45;1.25;;;;;;;;;;5055332;28;20049;-79
2022/12/24 14:32:17;;;;;;;2.67;0.90;;;;;;;;;;5053725;28;20045;-77
2022/12/24 14:34:44;;;;;;;7.70;1.02;;;;;;;;;;5054047;28;20045;-79
2022/12/24 14:37:12;;;;;;;5.57;1.42;;;;;;;;;;5054667;28;20116;-79
2022/12/24 14:39:41;;;;;;;7.72;1.23;;;;;;;;;;5053598;28;20056;-80
2022/12/24 14:42:26;;;;;;;5.28;1.25;;;;;;;;;;5053567;28;20056;-80
2022/12/24 14:44:52;;;;;;;6.13;1.30;;;;;;;;;;5053294;28;20048;-80
2022/12/24 14:47:27;;;;;;;7.47;1.42;;;;;;;;;;5053746;28;20304;-79
2022/12/24 14:50:10;;;;;;;8.82;1.60;;;;;;;;;;5053964;28;20045;-80
2022/12/24 14:52:56;;;;;;;5.60;1.20;;;;;;;;;;5053268;28;20057;-79
2022/12/24 14:55:39;;;;;;;8.18;1.88;;;;;;;;;;5027273;28;20450;-80
2022/12/24 14:58:14;;;;;;;8.70;1.23;;;;;;;;;;5053310;28;20057;-79
2022/12/24 15:00:41;;;;;;;5.93;1.23;;;;;;;;;;5051255;28;20464;-79
2022/12/24 15:03:12;;;;;;;10.55;1.70;;;;;;;;;;5033878;28;20053;-79
2022/12/24 15:05:39;;;;;;;8.45;1.70;;;;;;;;;;5034916;28;20144;-79